Time;durP1;ratioP1;P1;durP2;ratioP2;P2;SDS_P1;SDS_P2;PMS_P1;PMS_P2;Temp;Humidity;BMP_temperature;BMP_pressure;BME280_temperature;BME280_humidity;BME280_pressure;Samples;Min_cycle;Max_cycle;Signal;HPM_P1;HPM_P2
2024/03/16 00:02:00;;;;;;;26.90;5.28;;;;;;;15.41;55.37;100965.53;4951369;28;97338;-90
2024/03/16 00:04:26;;;;;;;24.42;5.22;;;;;;;15.43;55.64;100970.78;4949409;28;97105;-89
2024/03/16 00:06:52;;;;;;;26.90;4.63;;;;;;;15.41;55.46;100965.53;4932933;28;100806;-90
2024/03/16 00:09:18;;;;;;;28.33;5.00;;;;;;;15.41;55.52;100972.56;4936708;28;98989;-89
2024/03/16 00:11:44;;;;;;;20.90;4.90;;;;;;;15.40;55.50;100978.69;4935335;28;96827;-89
2024/03/16 00:14:10;;;;;;;27.25;4.93;;;;;;;15.40;55.66;100970.78;4949342;28;97034;-89
2024/03/16 00:16:35;;;;;;;20.08;5.32;;;;;;;15.39;55.66;100975.19;4934570;28;100773;-90
2024/03/16 00:19:01;;;;;;;25.88;5.05;;;;;;;15.39;55.54;100984.84;4933716;28;99143;-89
2024/03/16 00:21:27;;;;;;;26.67;4.68;;;;;;;15.38;55.75;100983.97;4950629;28;96987;-90
2024/03/16 00:23:55;;;;;;;24.42;4.57;;;;;;;15.38;55.81;100985.69;4948781;28;96958;-90
2024/03/16 00:26:20;;;;;;;25.65;4.95;;;;;;;15.34;55.89;100992.72;4936244;28;99961;-90
2024/03/16 00:28:47;;;;;;;27.40;5.65;;;;;;;15.28;55.96;100997.16;4966810;28;100828;-90
2024/03/16 00:31:13;;;;;;;25.90;4.63;;;;;;;15.22;56.18;100998.94;4951730;28;97384;-90
2024/03/16 00:33:39;;;;;;;25.92;4.82;;;;;;;15.19;56.44;101000.69;4950036;28;96995;-91
2024/03/16 00:36:04;;;;;;;24.00;4.72;;;;;;;15.13;56.52;100996.31;4951301;28;97716;-91
2024/03/16 00:38:30;;;;;;;33.88;4.97;;;;;;;15.07;56.72;100993.72;4949446;28;100108;-90
2024/03/16 00:40:56;;;;;;;20.92;5.13;;;;;;;15.03;56.77;101003.38;4952315;28;96834;-90
2024/03/16 00:43:22;;;;;;;29.13;4.32;;;;;;;14.99;56.97;101011.25;4949719;28;96896;-90
2024/03/16 00:45:51;;;;;;;28.48;4.88;;;;;;;14.94;57.19;101006.03;4939809;28;100341;-90
2024/03/16 00:48:17;;;;;;;;;;;;;;;14.86;56.80;101015.66;4935851;28;99078;-90
2024/03/16 00:50:42;;;;;;;24.30;4.75;;;;;;;14.85;57.39;101025.31;4951918;28;96810;-89
2024/03/16 00:53:09;;;;;;;27.83;5.70;;;;;;;14.79;57.62;101020.06;4934953;28;97031;-90
2024/03/16 00:55:35;;;;;;;26.65;4.97;;;;;;;14.75;57.78;101017.47;4952261;28;97718;-90
2024/03/16 00:58:01;;;;;;;25.25;5.15;;;;;;;14.73;57.87;101027.09;4949764;28;100767;-91
2024/03/16 01:00:28;;;;;;;31.95;6.22;;;;;;;14.71;58.26;101028.84;4950297;28;97391;-90
2024/03/16 01:02:53;;;;;;;26.27;4.82;;;;;;;14.71;58.37;101034.09;4949474;28;97003;-90
2024/03/16 01:05:19;;;;;;;31.98;5.93;;;;;;;14.69;58.43;101030.56;4951891;28;100670;-90
2024/03/16 01:07:45;;;;;;;20.88;5.93;;;;;;;14.69;58.60;101038.44;4937184;28;98718;-90
2024/03/16 01:10:11;;;;;;;32.42;7.30;;;;;;;14.69;58.80;101038.44;4969055;28;96808;-90
2024/03/16 01:12:37;;;;;;;38.47;7.43;;;;;;;14.65;58.78;101041.09;4937361;28;96819;-89
2024/03/16 01:15:03;;;;;;;35.28;7.75;;;;;;;14.62;58.99;101042.84;4951345;28;101021;-91
2024/03/16 01:17:29;;;;;;;34.83;8.48;;;;;;;14.57;58.97;101049.81;4951466;28;97825;-90
2024/03/16 01:19:55;;;;;;;33.65;8.07;;;;;;;14.56;59.11;101051.59;4951261;28;96833;-90
2024/03/16 01:22:21;;;;;;;29.42;7.63;;;;;;;14.55;59.20;101060.31;4952085;28;96975;-90
2024/03/16 01:24:47;;;;;;;36.85;7.03;;;;;;;14.54;58.97;101060.31;4950723;28;100742;-91
2024/03/16 01:27:15;;;;;;;31.17;7.00;;;;;;;14.51;58.98;101076.97;4934759;28;100712;-90
2024/03/16 01:29:40;;;;;;;29.10;6.68;;;;;;;14.48;59.06;101074.31;4935506;28;96891;-90
2024/03/16 01:32:08;;;;;;;31.67;6.60;;;;;;;14.47;59.10;101069.94;4950570;28;96809;-90
2024/03/16 01:34:34;;;;;;;31.23;6.28;;;;;;;14.48;58.98;101071.69;4949439;28;97998;-90
2024/03/16 01:37:00;;;;;;;27.75;5.32;;;;;;;14.48;58.94;101084.81;4949066;28;97738;-90
2024/03/16 01:39:25;;;;;;;21.95;4.70;;;;;;;14.46;58.73;101087.44;4967503;28;96845;-90
2024/03/16 01:41:51;;;;;;;21.38;4.45;;;;;;;14.45;58.61;101092.69;4936169;28;96913;-89
2024/03/16 01:44:17;;;;;;;23.17;4.70;;;;;;;14.43;58.50;101092.69;4952937;28;100032;-89
2024/03/16 01:46:42;;;;;;;15.18;3.22;;;;;;;14.40;58.65;101097.94;4938379;28;100739;-90
2024/03/16 01:49:08;;;;;;;18.42;3.30;;;;;;;14.36;58.58;101097.94;4949961;28;97010;-90
2024/03/16 01:51:38;;;;;;;14.00;3.22;;;;;;;14.32;58.29;101109.31;4949242;28;96936;-89
2024/03/16 01:54:05;;;;;;;19.63;3.40;;;;;;;14.25;58.29;101114.53;4949621;28;97630;-90
2024/03/16 01:56:31;;;;;;;11.80;2.40;;;;;;;14.21;58.33;101114.53;4946244;28;100293;-90
2024/03/16 01:58:57;;;;;;;14.32;2.50;;;;;;;14.13;58.18;101118.88;4948638;28;96905;-90
2024/03/16 02:01:23;;;;;;;9.90;2.25;;;;;;;14.07;58.13;101131.09;4948605;28;96946;-90
2024/03/16 02:03:50;;;;;;;9.93;2.50;;;;;;;14.02;58.19;101129.34;4934611;28;100662;-90
2024/03/16 02:06:15;;;;;;;11.77;2.45;;;;;;;13.97;58.18;101136.31;4947900;28;97510;-90
2024/03/16 02:08:41;;;;;;;13.50;3.00;;;;;;;13.91;58.28;101145.06;4947697;28;96896;-89
2024/03/16 02:11:06;;;;;;;10.65;2.65;;;;;;;13.87;58.29;101148.53;4962405;28;96877;-90
2024/03/16 02:13:32;;;;;;;10.23;2.85;;;;;;;13.81;58.04;101148.50;4934967;28;100967;-89
2024/03/16 02:15:57;;;;;;;14.20;3.10;;;;;;;13.76;58.32;101152.84;4945816;28;100136;-89
2024/03/16 02:18:23;;;;;;;12.20;2.50;;;;;;;13.73;58.44;101163.34;4947241;28;96853;-89
2024/03/16 02:20:48;;;;;;;10.38;3.28;;;;;;;13.67;58.29;101172.94;4947046;28;96959;-90
2024/03/16 02:23:15;;;;;;;13.20;2.92;;;;;;;13.62;58.33;101172.03;4947052;28;100283;-89
2024/03/16 02:25:42;;;;;;;7.43;2.10;;;;;;;13.56;58.37;101166.72;4933351;28;100217;-89
2024/03/16 02:28:08;;;;;;;8.63;2.22;;;;;;;13.48;58.59;101173.69;4947737;28;96947;-90
2024/03/16 02:30:34;;;;;;;6.60;2.13;;;;;;;13.43;58.83;101172.78;4947846;28;96971;-89
2024/03/16 02:32:59;;;;;;;5.70;2.17;;;;;;;13.39;58.75;101184.13;4946082;28;100573;-89
2024/03/16 02:35:25;;;;;;;7.53;2.42;;;;;;;13.37;59.10;101186.72;4945500;28;100180;-89
2024/03/16 02:37:50;;;;;;;6.53;1.98;;;;;;;13.34;58.94;101189.31;4947815;28;96892;-89
2024/03/16 02:40:17;;;;;;;6.82;2.67;;;;;;;13.31;58.88;101191.91;4933637;28;97062;-89
2024/03/16 02:42:43;;;;;;;7.15;2.30;;;;;;;13.29;58.96;101193.63;4947639;28;100427;-89
2024/03/16 02:45:09;;;;;;;6.30;2.42;;;;;;;13.24;59.09;101190.94;4948315;28;97392;-88
2024/03/16 02:47:35;;;;;;;7.07;2.38;;;;;;;13.21;59.20;101197.91;4933456;28;96882;-89
2024/03/16 02:50:03;;;;;;;8.88;2.42;;;;;;;13.18;59.16;101200.53;4948725;28;97103;-89
2024/03/16 02:52:31;;;;;;;9.13;3.05;;;;;;;13.16;59.08;101200.50;4931347;28;100589;-88
2024/03/16 02:54:57;;;;;;;6.13;2.70;;;;;;;13.10;59.21;101209.22;4945404;28;97829;-89
2024/03/16 02:57:24;;;;;;;8.90;2.95;;;;;;;13.07;59.25;101210.91;4947817;28;96947;-89
2024/03/16 02:59:49;;;;;;;10.63;2.50;;;;;;;13.04;59.44;101206.53;4962961;28;97265;-89
2024/03/16 03:02:16;;;;;;;10.93;2.63;;;;;;;13.03;59.46;101222.22;4951562;28;101187;-90
2024/03/16 03:04:41;;;;;;;8.70;2.97;;;;;;;13.02;59.52;101225.72;4949864;28;99366;-89
2024/03/16 03:07:07;;;;;;;8.40;3.30;;;;;;;13.00;59.54;101224.84;4935480;28;97043;-89
2024/03/16 03:09:33;;;;;;;9.93;3.30;;;;;;;13.00;59.76;101233.56;4950574;28;97016;-90
2024/03/16 03:11:58;;;;;;;12.90;3.78;;;;;;;12.99;59.70;101236.16;4933627;28;100489;-88
2024/03/16 03:14:24;;;;;;;10.80;4.30;;;;;;;12.97;59.87;101253.59;4950270;28;99042;-89
2024/03/16 03:16:50;;;;;;;14.88;4.30;;;;;;;12.97;59.60;101261.44;4949980;28;96888;-90
2024/03/16 03:19:16;;;;;;;9.65;4.20;;;;;;;12.95;59.87;101261.44;4934614;28;96951;-89
2024/03/16 03:21:41;;;;;;;13.93;4.30;;;;;;;12.92;59.71;101261.41;4935222;28;100039;-90
2024/03/16 03:24:07;;;;;;;10.35;4.35;;;;;;;12.88;59.71;101270.97;4951104;28;99980;-90
2024/03/16 03:26:33;;;;;;;8.43;3.53;;;;;;;12.83;60.06;101269.16;4936795;28;96790;-90
2024/03/16 03:28:59;;;;;;;10.80;3.55;;;;;;;12.81;59.87;101279.63;4936087;28;96928;-90
2024/03/16 03:31:25;;;;;;;7.95;3.40;;;;;;;12.79;59.97;101289.19;4951884;28;100549;-91
2024/03/16 03:33:51;;;;;;;9.88;3.13;;;;;;;12.77;59.99;101294.41;4952271;28;100772;-91
2024/03/16 03:36:16;;;;;;;8.13;2.90;;;;;;;12.75;60.01;101293.53;4935816;28;97034;-90
2024/03/16 03:38:43;;;;;;;10.93;2.67;;;;;;;12.74;59.90;101286.56;4937134;28;96894;-91
2024/03/16 03:41:08;;;;;;;9.82;2.67;;;;;;;12.73;60.05;101290.00;4952967;28;99284;-89
2024/03/16 03:43:36;;;;;;;10.80;2.50;;;;;;;12.71;60.06;101283.03;4952705;28;98735;-90
2024/03/16 03:46:04;;;;;;;6.13;2.38;;;;;;;12.71;60.18;101303.97;4942681;28;96799;-90
2024/03/16 03:48:40;;;;;;;8.65;2.10;;;;;;;12.71;60.21;101306.59;4936323;28;96822;-90
2024/03/16 03:51:06;;;;;;;10.15;2.97;;;;;;;12.70;60.18;101312.66;4951858;28;100550;-90
2024/03/16 03:53:32;;;;;;;11.57;2.15;;;;;;;12.69;60.25;101310.88;4936437;28;99378;-91
2024/03/16 03:55:59;;;;;;;7.85;1.55;;;;;;;12.68;60.22;101320.50;4951808;28;96880;-90
2024/03/16 03:58:25;;;;;;;4.60;2.22;;;;;;;12.67;60.25;101321.34;4965851;28;96850;-90
2024/03/16 04:00:50;;;;;;;10.80;1.88;;;;;;;12.66;60.21;101324.84;4952945;28;98035;-90
2024/03/16 04:03:16;;;;;;;5.68;1.88;;;;;;;12.64;60.27;101330.91;4935144;28;100423;-91
2024/03/16 04:05:43;;;;;;;5.28;1.25;;;;;;;12.64;60.20;101330.91;4952818;28;97108;-91
2024/03/16 04:08:09;;;;;;;4.43;1.52;;;;;;;12.61;60.35;101339.59;4952543;28;96862;-92
2024/03/16 04:10:36;;;;;;;4.70;1.52;;;;;;;12.57;60.17;101343.91;4952367;28;100004;-91
2024/03/16 04:13:02;;;;;;;4.82;1.63;;;;;;;12.54;60.49;101356.97;4934714;28;100788;-92
2024/03/16 04:15:28;;;;;;;5.70;1.63;;;;;;;12.53;60.35;101359.53;4941996;28;97152;-91
2024/03/16 04:17:53;;;;;;;7.93;1.90;;;;;;;12.51;60.22;101363.88;4952806;28;96895;-90
2024/03/16 04:20:20;;;;;;;6.13;1.77;;;;;;;12.50;60.24;101370.88;4937130;28;100591;-91
2024/03/16 04:22:46;;;;;;;4.63;1.98;;;;;;;12.49;60.34;101382.19;4952506;28;100673;-91
2024/03/16 04:25:12;;;;;;;8.35;2.05;;;;;;;12.48;60.42;101384.81;4936706;28;96912;-91
2024/03/16 04:27:39;;;;;;;6.57;1.48;;;;;;;12.46;60.52;101382.16;4935743;28;96956;-91
2024/03/16 04:30:06;;;;;;;4.35;1.70;;;;;;;12.48;60.31;101392.66;4951587;28;100312;-91
2024/03/16 04:32:33;;;;;;;7.63;1.52;;;;;;;12.47;60.08;101389.13;4934339;28;99121;-90
2024/03/16 04:34:59;;;;;;;6.78;1.63;;;;;;;12.46;60.34;101396.97;4937707;28;96775;-90
2024/03/16 04:37:25;;;;;;;4.63;1.67;;;;;;;12.45;60.34;101406.56;4966999;28;96926;-89
2024/03/16 04:39:51;;;;;;;9.80;1.92;;;;;;;12.44;60.27;101415.28;4952077;28;97728;-91
2024/03/16 04:42:17;;;;;;;8.93;1.98;;;;;;;12.41;60.14;101411.75;4951374;28;99932;-90
2024/03/16 04:44:43;;;;;;;7.93;1.75;;;;;;;12.40;60.19;101421.31;4935133;28;96786;-90
2024/03/16 04:47:09;;;;;;;9.43;2.10;;;;;;;12.38;60.35;101433.50;4951193;28;96857;-90
2024/03/16 04:49:34;;;;;;;7.50;1.83;;;;;;;12.38;60.21;101430.88;4951054;28;100875;-90
2024/03/16 04:52:00;;;;;;;7.45;1.63;;;;;;;12.36;60.21;101436.06;4950747;28;100179;-90
2024/03/16 04:54:25;;;;;;;6.00;1.70;;;;;;;12.35;60.36;101442.19;4951036;28;96890;-90
2024/03/16 04:56:51;;;;;;;9.75;2.75;;;;;;;12.33;60.38;101446.50;4937395;28;96981;-90
2024/03/16 04:59:17;;;;;;;7.22;1.65;;;;;;;12.35;60.24;101446.50;4950941;28;100598;-90
2024/03/16 05:01:42;;;;;;;9.48;2.33;;;;;;;12.34;60.45;101450.00;4938223;28;99423;-90
2024/03/16 05:04:08;;;;;;;5.65;1.70;;;;;;;12.33;60.40;101454.34;4950262;28;96887;-90
2024/03/16 05:06:34;;;;;;;5.45;1.75;;;;;;;12.33;60.53;101456.94;4937925;28;96854;-90
2024/03/16 05:09:05;;;;;;;6.50;1.75;;;;;;;12.35;60.53;101456.97;4950209;28;100839;-90
2024/03/16 05:11:36;;;;;;;10.77;2.20;;;;;;;12.36;60.49;101464.84;4934228;28;100631;-90
2024/03/16 05:14:02;;;;;;;11.95;2.15;;;;;;;12.37;60.61;101477.09;4948786;28;96776;-90
2024/03/16 05:16:28;;;;;;;10.30;2.03;;;;;;;12.39;60.49;101482.34;4934014;28;97096;-89
2024/03/16 05:18:53;;;;;;;7.68;1.58;;;;;;;12.38;60.36;101493.66;4934310;28;100807;-90
2024/03/16 05:21:19;;;;;;;10.77;1.73;;;;;;;12.36;60.48;101498.00;4950626;28;100676;-90
2024/03/16 05:23:45;;;;;;;6.63;1.52;;;;;;;12.32;60.05;101504.03;4952624;28;96875;-90
2024/03/16 05:26:14;;;;;;;8.80;1.90;;;;;;;12.25;60.09;101518.75;4937881;28;97053;-91
2024/03/16 05:28:40;;;;;;;3.13;1.27;;;;;;;12.17;59.90;101522.97;4936519;28;100566;-91
2024/03/16 05:31:08;;;;;;;8.35;1.88;;;;;;;12.11;60.30;101528.97;4939164;28;99451;-91
2024/03/16 05:33:34;;;;;;;6.25;1.13;;;;;;;12.07;60.14;101532.41;4951511;28;96948;-91
2024/03/16 05:36:02;;;;;;;8.15;1.30;;;;;;;12.02;59.99;101533.19;4936096;28;96918;-90
2024/03/16 05:38:27;;;;;;;6.25;1.00;;;;;;;11.98;60.10;101547.94;4949758;28;100596;-90
2024/03/16 05:40:53;;;;;;;5.07;1.13;;;;;;;11.96;60.01;101555.75;4950106;28;97796;-90
2024/03/16 05:43:18;;;;;;;5.45;1.13;;;;;;;11.94;60.08;101561.78;4950872;28;96951;-90
2024/03/16 05:45:44;;;;;;;4.63;1.10;;;;;;;11.92;60.30;101568.72;4935657;28;96885;-90
2024/03/16 05:48:09;;;;;;;7.15;1.10;;;;;;;11.91;60.19;101582.66;4933621;28;99941;-90
2024/03/16 05:50:35;;;;;;;6.60;1.55;;;;;;;11.89;60.32;101589.53;4933565;28;100033;-90
2024/03/16 05:53:01;;;;;;;4.05;1.00;;;;;;;11.87;60.22;101586.00;4950384;28;96940;-90
2024/03/16 05:55:26;;;;;;;6.38;1.25;;;;;;;11.85;60.19;101593.81;4951258;28;96768;-90
2024/03/16 05:57:52;;;;;;;5.80;1.58;;;;;;;11.82;60.16;101604.25;4949734;28;100436;-90
2024/03/16 06:00:19;;;;;;;9.82;1.67;;;;;;;11.81;60.26;101615.53;4936936;28;100134;-90
2024/03/16 06:02:45;;;;;;;4.40;1.30;;;;;;;11.78;60.11;101618.97;4938919;28;96825;-90
2024/03/16 06:05:11;;;;;;;17.52;1.48;;;;;;;11.77;60.07;101625.03;4950303;28;96923;-89
2024/03/16 06:07:36;;;;;;;7.32;1.42;;;;;;;11.77;60.32;101637.25;4951755;28;100623;-89
2024/03/16 06:10:02;;;;;;;10.48;1.60;;;;;;;11.73;60.10;101644.13;4950562;28;100396;-89
2024/03/16 06:12:30;;;;;;;11.07;1.70;;;;;;;11.71;60.25;101650.16;4934161;28;96916;-90
2024/03/16 06:14:57;;;;;;;8.57;1.80;;;;;;;11.70;60.38;101651.91;4938036;28;96978;-90
2024/03/16 06:17:22;;;;;;;8.65;1.42;;;;;;;11.71;60.43;101658.00;4949610;28;100920;-90
2024/03/16 06:19:49;;;;;;;11.65;1.73;;;;;;;11.71;60.36;101660.63;4937849;28;100412;-90
2024/03/16 06:22:16;;;;;;;8.35;1.52;;;;;;;11.72;60.43;101665.88;4934690;28;96826;-89
2024/03/16 06:24:42;;;;;;;6.90;1.20;;;;;;;11.73;60.27;101672.88;4948510;28;96893;-90
2024/03/16 06:27:10;;;;;;;8.50;1.70;;;;;;;11.73;60.40;101682.44;4931190;28;100426;-90
2024/03/16 06:29:36;;;;;;;9.75;1.50;;;;;;;11.73;60.55;101691.19;4932150;28;100285;-89
2024/03/16 06:32:07;;;;;;;8.77;1.70;;;;;;;11.73;60.19;101692.91;4933805;28;96782;-90
2024/03/16 06:34:33;;;;;;;8.45;1.67;;;;;;;11.72;60.42;101692.03;4933142;28;96976;-89
2024/03/16 06:36:59;;;;;;;5.53;1.42;;;;;;;11.72;60.73;101699.00;4947933;28;100616;-91
2024/03/16 06:39:25;;;;;;;9.50;1.75;;;;;;;11.71;60.13;101705.03;4947796;28;100259;-88
2024/03/16 06:41:54;;;;;;;6.85;1.70;;;;;;;11.72;60.41;101709.44;4948774;28;96800;-84
2024/03/16 06:44:20;;;;;;;9.80;1.42;;;;;;;11.71;60.29;101710.28;4947470;28;96903;-83
2024/03/16 06:46:45;;;;;;;5.68;1.45;;;;;;;11.70;60.26;101714.63;4946103;28;100416;-85
2024/03/16 06:49:11;;;;;;;8.35;1.80;;;;;;;11.70;60.28;101724.22;4931092;28;100195;-85
2024/03/16 06:51:36;;;;;;;10.45;1.80;;;;;;;11.71;60.35;101734.69;4963107;28;96920;-85
2024/03/16 06:54:03;;;;;;;6.97;1.70;;;;;;;11.72;60.67;101739.06;4930892;28;97276;-85
2024/03/16 06:56:29;;;;;;;8.82;1.55;;;;;;;11.76;60.39;101737.41;4946451;28;101225;-85
2024/03/16 06:58:55;;;;;;;5.50;1.88;;;;;;;11.79;60.51;101743.56;4931825;28;100319;-83
2024/03/16 07:01:24;;;;;;;9.70;1.77;;;;;;;11.82;60.62;101748.88;4930604;28;97440;-83
2024/03/16 07:03:49;;;;;;;8.63;1.98;;;;;;;11.86;61.08;101762.91;4929967;28;96943;-84
2024/03/16 07:06:15;;;;;;;8.02;1.73;;;;;;;11.89;60.55;101769.91;4946251;28;100828;-84
2024/03/16 07:08:40;;;;;;;8.43;1.88;;;;;;;11.92;60.66;101776.13;4932256;28;100801;-84
2024/03/16 07:11:06;;;;;;;7.45;1.60;;;;;;;11.95;60.36;101785.78;4947143;28;96865;-84
2024/03/16 07:13:32;;;;;;;13.75;2.15;;;;;;;11.98;60.57;101791.97;4945263;28;98321;-84
2024/03/16 07:15:58;;;;;;;7.60;1.52;;;;;;;12.00;60.41;101797.22;4931616;28;100145;-84
2024/03/16 07:18:23;;;;;;;7.82;1.65;;;;;;;12.03;60.36;101794.66;4947420;28;97496;-84
2024/03/16 07:20:49;;;;;;;12.20;1.70;;;;;;;12.08;60.72;101808.72;4945588;28;96976;-84
2024/03/16 07:23:14;;;;;;;13.23;1.80;;;;;;;12.14;60.76;101808.00;4945970;28;96843;-84
2024/03/16 07:25:41;;;;;;;8.38;1.85;;;;;;;12.19;60.71;101808.94;4931068;28;100467;-84
2024/03/16 07:28:07;;;;;;;7.05;1.83;;;;;;;12.24;60.29;101806.44;4932915;28;100838;-85
2024/03/16 07:30:35;;;;;;;8.98;1.63;;;;;;;12.25;60.32;101801.25;4927699;28;96880;-85
2024/03/16 07:33:02;;;;;;;6.38;1.80;;;;;;;12.29;60.48;101808.31;4945501;28;97228;-84
2024/03/16 07:35:28;;;;;;;8.13;1.73;;;;;;;12.34;60.52;101818.88;4946036;28;100108;-85
2024/03/16 07:37:53;;;;;;;9.95;2.05;;;;;;;12.37;60.18;101825.06;4946022;28;99865;-85
2024/03/16 07:40:21;;;;;;;10.88;1.80;;;;;;;12.41;59.92;101836.47;4931161;28;96954;-85
2024/03/16 07:42:47;;;;;;;10.95;2.25;;;;;;;12.44;60.30;101838.25;4946386;28;97217;-85
2024/03/16 07:45:14;;;;;;;7.30;1.55;;;;;;;12.48;60.43;101840.97;4944942;28;97862;-85
2024/03/16 07:47:40;;;;;;;7.43;1.63;;;;;;;12.52;59.98;101844.53;4947439;28;100434;-85
2024/03/16 07:50:05;;;;;;;6.65;1.52;;;;;;;12.57;60.07;101850.75;4949296;28;96986;-85
2024/03/16 07:52:32;;;;;;;8.75;1.60;;;;;;;12.62;59.94;101851.72;4953464;28;96994;-87
2024/03/16 07:54:58;;;;;;;6.88;1.30;;;;;;;12.65;59.83;101859.63;4941356;28;100791;-86
2024/03/16 07:57:24;;;;;;;5.47;1.33;;;;;;;12.67;59.69;101865.75;4949698;28;100474;-85
2024/03/16 07:59:49;;;;;;;6.75;1.48;;;;;;;12.68;59.27;101872.78;4948367;28;96784;-86
2024/03/16 08:02:15;;;;;;;9.65;1.77;;;;;;;12.68;59.16;101878.00;4946999;28;97072;-86
2024/03/16 08:04:40;;;;;;;6.32;1.15;;;;;;;12.70;59.45;101883.28;4933623;28;100707;-86
2024/03/16 08:07:06;;;;;;;10.68;1.73;;;;;;;12.74;59.27;101888.63;4937968;28;100428;-86
2024/03/16 08:09:31;;;;;;;5.75;1.42;;;;;;;12.77;58.99;101893.91;4951267;28;96851;-85
2024/03/16 08:11:57;;;;;;;9.05;1.30;;;;;;;12.80;59.34;101900.97;4935573;28;97059;-85
2024/03/16 08:14:23;;;;;;;4.55;1.33;;;;;;;12.85;59.45;101904.56;4936029;28;100590;-85
2024/03/16 08:16:49;;;;;;;8.88;2.15;;;;;;;12.91;59.45;101902.03;4958164;28;99806;-85
2024/03/16 08:19:16;;;;;;;6.30;1.60;;;;;;;12.96;59.07;101902.16;4937903;28;97072;-86
2024/03/16 08:21:42;;;;;;;6.43;1.55;;;;;;;12.99;58.66;101901.31;4937596;28;97104;-86
2024/03/16 08:24:08;;;;;;;7.35;2.10;;;;;;;13.01;58.37;101907.44;4952158;28;100339;-84
2024/03/16 08:26:33;;;;;;;7.05;1.20;;;;;;;12.99;58.19;101907.41;4948100;28;100497;-84
2024/03/16 08:29:00;;;;;;;6.50;1.80;;;;;;;12.98;58.17;101930.97;4936822;28;96983;-84
2024/03/16 08:31:25;;;;;;;7.97;1.35;;;;;;;12.94;57.91;101927.41;4949646;28;96925;-84
2024/03/16 08:33:51;;;;;;;6.32;1.40;;;;;;;12.92;57.76;101931.72;4936289;28;100390;-83
2024/03/16 08:36:16;;;;;;;4.85;1.15;;;;;;;12.89;58.00;101932.56;4932377;28;100234;-83
2024/03/16 08:38:42;;;;;;;8.07;1.45;;;;;;;12.90;57.87;101941.28;4949922;28;96864;-84
2024/03/16 08:41:07;;;;;;;5.82;1.10;;;;;;;12.91;57.93;101946.56;4949979;28;97684;-85
2024/03/16 08:43:32;;;;;;;6.38;1.15;;;;;;;12.92;57.78;101947.44;4949752;28;100778;-86
2024/03/16 08:46:01;;;;;;;4.72;1.38;;;;;;;12.93;57.70;101939.63;4949013;28;97536;-84
2024/03/16 08:48:27;;;;;;;6.30;1.08;;;;;;;12.92;57.82;101943.09;4932174;28;97026;-90
2024/03/16 08:50:56;;;;;;;8.27;1.30;;;;;;;12.97;57.80;101950.16;4933694;28;97078;-88
2024/03/16 08:53:21;;;;;;;;;;;;;;;12.97;58.28;101951.03;4947970;28;100940;-87
2024/03/16 08:55:47;;;;;;;8.07;1.30;;;;;;;13.05;57.88;101952.09;4931509;28;100431;-83
2024/03/16 08:58:12;;;;;;;9.25;1.67;;;;;;;13.09;57.65;101955.66;4949015;28;96867;-83
2024/03/16 09:00:37;;;;;;;6.43;1.10;;;;;;;13.12;57.49;101960.97;4947394;28;97240;-83
2024/03/16 09:03:04;;;;;;;4.85;1.10;;;;;;;13.13;57.19;101958.34;4946662;28;100421;-83
2024/03/16 09:05:30;;;;;;;10.80;1.60;;;;;;;13.17;56.91;101961.91;4931723;28;99809;-83
2024/03/16 09:07:55;;;;;;;9.38;1.33;;;;;;;13.22;57.16;101972.47;4948722;28;96815;-84
2024/03/16 09:10:21;;;;;;;9.60;1.40;;;;;;;13.25;56.83;101989.16;4949657;28;96909;-83
2024/03/16 09:12:46;;;;;;;6.47;1.10;;;;;;;13.25;56.42;101988.28;4961074;28;100632;-84
2024/03/16 09:15:12;;;;;;;4.10;1.15;;;;;;;13.22;55.84;101996.06;4949657;28;100135;-83
2024/03/16 09:17:38;;;;;;;5.65;1.10;;;;;;;13.18;55.75;102002.09;4948549;28;96987;-83
2024/03/16 09:20:10;;;;;;;5.50;1.65;;;;;;;13.15;55.72;102002.91;4932619;28;97078;-84
2024/03/16 09:22:39;;;;;;;6.15;1.30;;;;;;;13.12;55.76;102011.59;4949332;28;101611;-83
2024/03/16 09:25:05;;;;;;;7.13;1.48;;;;;;;13.09;55.39;102003.66;4949137;28;97832;-83
2024/03/16 09:27:34;;;;;;;8.20;1.48;;;;;;;13.05;55.62;102014.06;4948838;28;96830;-84
2024/03/16 09:30:01;;;;;;;7.72;1.30;;;;;;;13.02;55.39;102019.25;4948743;28;96977;-83
2024/03/16 09:32:26;;;;;;;5.03;1.38;;;;;;;12.97;55.33;102021.75;4941201;28;100623;-83
2024/03/16 09:34:52;;;;;;;6.82;1.20;;;;;;;12.90;55.16;102019.84;4947674;28;97764;-83
2024/03/16 09:37:17;;;;;;;6.32;1.60;;;;;;;12.88;55.67;102032.03;4949071;28;97182;-83
2024/03/16 09:39:43;;;;;;;7.75;1.77;;;;;;;12.87;55.64;102051.19;4949792;28;96883;-83
2024/03/16 09:42:10;;;;;;;8.75;1.45;;;;;;;12.86;55.37;102044.22;4948241;28;100954;-84
2024/03/16 09:44:35;;;;;;;7.85;1.60;;;;;;;12.86;55.69;102047.69;4949391;28;100602;-83
2024/03/16 09:47:09;;;;;;;7.88;1.27;;;;;;;12.89;56.03;102054.75;4963586;28;97369;-84
2024/03/16 09:49:35;;;;;;;6.43;1.35;;;;;;;12.92;55.95;102058.31;4949067;28;96957;-83
2024/03/16 09:52:05;;;;;;;6.50;1.27;;;;;;;12.96;55.57;102054.03;4947164;28;100555;-84
2024/03/16 09:54:37;;;;;;;6.55;1.25;;;;;;;12.97;55.61;102058.41;4948288;28;97703;-83
2024/03/16 09:57:03;;;;;;;12.98;2.25;;;;;;;12.97;54.88;102065.38;4932247;28;96869;-83
2024/03/16 09:59:28;;;;;;;7.18;1.40;;;;;;;12.93;55.00;102078.41;4932822;28;96963;-83
2024/03/16 10:01:54;;;;;;;6.03;1.45;;;;;;;12.94;55.13;102077.56;4962911;28;100349;-83
2024/03/16 10:04:43;;;;;;;11.38;1.63;;;;;;;12.97;54.82;102076.75;4948045;28;97367;-83
2024/03/16 10:07:08;;;;;;;7.15;1.50;;;;;;;13.00;55.20;102083.81;4860366;28;97962;-84
2024/03/16 10:09:33;;;;;;;6.47;1.35;;;;;;;13.03;55.14;102084.75;4853292;28;97084;-83
2024/03/16 10:12:09;;;;;;;6.05;1.40;;;;;;;13.09;55.17;102084.88;4868794;28;97971;-84
2024/03/16 10:14:34;;;;;;;7.22;1.27;;;;;;;13.16;55.12;102095.50;4854725;28;98065;-84
2024/03/16 10:17:02;;;;;;;10.20;1.58;;;;;;;13.22;55.07;102093.88;4854098;28;97102;-84
2024/03/16 10:19:27;;;;;;;8.00;1.60;;;;;;;13.30;55.02;102108.03;4846692;28;97200;-84
2024/03/16 10:21:53;;;;;;;7.40;1.20;;;;;;;13.39;54.65;102101.28;4869084;28;98110;-83
2024/03/16 10:24:20;;;;;;;9.45;1.42;;;;;;;13.44;54.45;102105.75;4851842;28;100021;-84
2024/03/16 10:26:47;;;;;;;7.28;1.48;;;;;;;13.44;54.07;102100.50;4854579;28;97002;-83
2024/03/16 10:29:15;;;;;;;7.15;1.38;;;;;;;13.44;54.08;102125.81;4839374;28;97036;-86
2024/03/16 10:31:40;;;;;;;8.93;1.70;;;;;;;13.41;53.64;102129.28;4853088;28;100703;-84
2024/03/16 10:34:11;;;;;;;13.45;1.63;;;;;;;13.42;53.72;102136.28;4855093;28;97938;-83
2024/03/16 10:36:37;;;;;;;11.15;1.70;;;;;;;13.46;53.91;102139.88;4842588;28;96936;-82
2024/03/16 10:39:03;;;;;;;6.50;1.70;;;;;;;13.51;53.41;102130.34;4853619;28;97129;-82
2024/03/16 10:41:29;;;;;;;7.45;1.08;;;;;;;13.56;53.38;102139.19;4854501;28;97808;-82
2024/03/16 10:43:59;;;;;;;11.20;1.88;;;;;;;13.61;53.56;102139.28;4892986;28;97504;-83
2024/03/16 10:46:24;;;;;;;9.82;1.60;;;;;;;13.68;53.27;102156.91;4949215;28;96799;-83
2024/03/16 10:48:50;;;;;;;12.48;2.15;;;;;;;13.70;53.09;102156.06;4949710;28;96899;-82
2024/03/16 10:51:17;;;;;;;10.32;1.73;;;;;;;13.74;53.16;102164.91;4949009;28;100363;-83
2024/03/16 10:53:45;;;;;;;7.32;1.20;;;;;;;13.77;52.79;102166.72;4947196;28;100564;-83
2024/03/16 10:56:13;;;;;;;7.45;1.70;;;;;;;13.78;52.95;102174.63;4934736;28;97018;-82
2024/03/16 10:58:38;;;;;;;5.80;1.35;;;;;;;13.79;52.77;102167.63;4949397;28;96890;-82
2024/03/16 11:01:07;;;;;;;6.70;1.58;;;;;;;13.82;52.84;102165.94;4936601;28;101144;-83
2024/03/16 11:03:36;;;;;;;7.68;1.42;;;;;;;13.89;52.78;102174.84;4947728;28;100294;-84
2024/03/16 11:06:02;;;;;;;11.20;1.40;;;;;;;13.97;52.53;102169.72;4946048;28;96911;-83
2024/03/16 11:08:45;;;;;;;7.45;1.35;;;;;;;14.05;52.17;102170.78;4934152;28;97067;-83
2024/03/16 11:11:24;;;;;;;6.30;1.30;;;;;;;14.15;52.01;102179.69;4934764;28;100211;-84
2024/03/16 11:13:58;;;;;;;9.15;1.35;;;;;;;14.27;51.90;102175.56;4946258;28;97881;-83
2024/03/16 11:16:27;;;;;;;6.30;1.30;;;;;;;14.34;51.50;102176.56;4946795;28;96893;-84